Time;durP1;ratioP1;P1;durP2;ratioP2;P2;SDS_P1;SDS_P2;PMS_P1;PMS_P2;Temp;Humidity;BMP_temperature;BMP_pressure;BME280_temperature;BME280_humidity;BME280_pressure;Samples;Min_cycle;Max_cycle;Signal;HPM_P1;HPM_P2
2023/09/15 00:01:15;;;;;;;9.68;3.10;;;;;;;;;;4984973;28;20723;-72
2023/09/15 00:03:41;;;;;;;8.02;3.00;;;;;;;;;;4990352;28;20057;-72
2023/09/15 00:06:07;;;;;;;7.25;2.60;;;;;;;;;;4983678;28;20057;-72
2023/09/15 00:08:34;;;;;;;6.57;3.00;;;;;;;;;;4982943;28;20564;-72
2023/09/15 00:11:00;;;;;;;8.10;3.20;;;;;;;;;;4990111;28;20118;-71
2023/09/15 00:13:27;;;;;;;4.72;2.60;;;;;;;;;;4985541;28;20472;-72
2023/09/15 00:15:53;;;;;;;9.55;3.83;;;;;;;;;;4986034;28;20043;-72
2023/09/15 00:18:19;;;;;;;6.20;2.67;;;;;;;;;;4990053;28;20114;-73
2023/09/15 00:20:45;;;;;;;10.48;3.13;;;;;;;;;;4997336;28;20125;-71
2023/09/15 00:23:11;;;;;;;15.93;3.92;;;;;;;;;;4987298;28;20082;-73
2023/09/15 00:25:37;;;;;;;5.85;2.97;;;;;;;;;;4980576;28;20034;-72
2023/09/15 00:28:04;;;;;;;8.38;3.17;;;;;;;;;;4987960;28;20117;-72
2023/09/15 00:30:30;;;;;;;12.95;4.25;;;;;;;;;;4983852;28;20034;-76
2023/09/15 00:32:57;;;;;;;9.40;3.33;;;;;;;;;;4997033;28;20074;-73
2023/09/15 00:35:24;;;;;;;6.10;3.10;;;;;;;;;;4985628;28;20038;-72
2023/09/15 00:37:51;;;;;;;9.18;3.17;;;;;;;;;;4986666;28;20050;-72
2023/09/15 00:40:18;;;;;;;6.65;2.65;;;;;;;;;;4983808;28;20096;-73
2023/09/15 00:42:44;;;;;;;9.15;3.25;;;;;;;;;;4985520;28;20958;-72
2023/09/15 00:45:14;;;;;;;4.75;3.08;;;;;;;;;;4981869;28;20085;-72
2023/09/15 00:47:43;;;;;;;6.65;3.67;;;;;;;;;;4984991;28;20477;-71
2023/09/15 00:50:10;;;;;;;8.38;4.15;;;;;;;;;;4986446;28;20034;-75
2023/09/15 00:52:36;;;;;;;11.07;3.47;;;;;;;;;;4984065;28;20034;-72
2023/09/15 00:55:04;;;;;;;7.40;3.10;;;;;;;;;;4984217;28;20028;-71
2023/09/15 00:57:30;;;;;;;7.45;3.13;;;;;;;;;;4986544;28;20034;-71
2023/09/15 00:59:56;;;;;;;8.68;3.55;;;;;;;;;;4984343;28;20110;-71
2023/09/15 01:02:23;;;;;;;7.45;3.40;;;;;;;;;;4985534;28;20039;-71
2023/09/15 01:04:49;;;;;;;8.05;3.20;;;;;;;;;;4982479;28;20050;-73
2023/09/15 01:07:15;;;;;;;15.57;3.80;;;;;;;;;;4987167;28;20042;-72
2023/09/15 01:09:42;;;;;;;8.30;4.10;;;;;;;;;;4988126;28;20030;-71
2023/09/15 01:12:08;;;;;;;8.38;3.65;;;;;;;;;;4987904;28;20053;-71
2023/09/15 01:14:35;;;;;;;7.32;3.72;;;;;;;;;;4983589;28;20046;-70
2023/09/15 01:17:12;;;;;;;9.20;3.67;;;;;;;;;;4984666;28;20054;-73
2023/09/15 01:19:57;;;;;;;7.10;3.15;;;;;;;;;;4985769;28;20476;-74
2023/09/15 01:22:23;;;;;;;9.48;3.85;;;;;;;;;;4985045;28;20071;-72
2023/09/15 01:24:50;;;;;;;7.70;3.17;;;;;;;;;;4983250;28;20019;-70
2023/09/15 01:27:35;;;;;;;12.13;3.22;;;;;;;;;;4985391;28;20034;-72
2023/09/15 01:30:02;;;;;;;11.80;3.17;;;;;;;;;;4987953;28;20633;-71
2023/09/15 01:32:29;;;;;;;13.32;3.80;;;;;;;;;;4979330;28;20054;-75
2023/09/15 01:34:55;;;;;;;8.27;3.75;;;;;;;;;;4985999;28;20452;-71
2023/09/15 01:37:21;;;;;;;11.15;3.80;;;;;;;;;;4980300;28;20516;-71
2023/09/15 01:39:47;;;;;;;9.45;3.60;;;;;;;;;;4988648;28;20065;-71
2023/09/15 01:42:14;;;;;;;7.97;3.53;;;;;;;;;;4983996;28;20023;-75
2023/09/15 01:44:40;;;;;;;7.07;3.53;;;;;;;;;;4988382;28;20487;-71
2023/09/15 01:47:08;;;;;;;7.65;3.05;;;;;;;;;;4984465;28;20042;-73
2023/09/15 01:49:34;;;;;;;10.07;3.47;;;;;;;;;;4980841;28;20048;-72
2023/09/15 01:52:01;;;;;;;8.90;3.78;;;;;;;;;;4985903;28;20042;-71
2023/09/15 01:54:27;;;;;;;9.13;3.75;;;;;;;;;;4983306;28;20417;-71
2023/09/15 01:56:53;;;;;;;8.57;3.70;;;;;;;;;;4987443;28;20053;-71
2023/09/15 01:59:19;;;;;;;8.48;3.90;;;;;;;;;;4985440;28;20042;-75
2023/09/15 02:01:45;;;;;;;12.40;3.65;;;;;;;;;;4979837;28;20042;-71
2023/09/15 02:04:11;;;;;;;5.63;3.22;;;;;;;;;;4977710;28;20057;-72
2023/09/15 02:06:37;;;;;;;10.70;3.70;;;;;;;;;;4988715;28;20034;-71
2023/09/15 02:09:06;;;;;;;10.40;3.65;;;;;;;;;;4988146;28;20136;-72
2023/09/15 02:11:32;;;;;;;8.68;3.35;;;;;;;;;;4979197;28;20053;-72
2023/09/15 02:13:58;;;;;;;5.35;3.38;;;;;;;;;;4984568;28;20066;-73
2023/09/15 02:16:24;;;;;;;10.23;4.10;;;;;;;;;;4983757;28;20476;-72
2023/09/15 02:18:50;;;;;;;8.80;4.15;;;;;;;;;;4984329;28;20027;-71
2023/09/15 02:21:16;;;;;;;8.20;3.92;;;;;;;;;;4985978;28;20049;-73
2023/09/15 02:23:43;;;;;;;11.88;3.50;;;;;;;;;;4987036;28;20041;-73
2023/09/15 02:26:09;;;;;;;12.93;3.97;;;;;;;;;;4987594;28;20376;-75
2023/09/15 02:28:35;;;;;;;7.72;4.22;;;;;;;;;;4979118;28;20019;-72
2023/09/15 02:31:06;;;;;;;7.40;3.70;;;;;;;;;;4979539;28;20447;-72
2023/09/15 02:33:34;;;;;;;8.02;3.55;;;;;;;;;;4987061;28;20057;-70
2023/09/15 02:36:01;;;;;;;9.82;3.88;;;;;;;;;;4980073;28;20424;-71
2023/09/15 02:38:27;;;;;;;6.93;3.22;;;;;;;;;;4980975;28;20038;-70
2023/09/15 02:40:53;;;;;;;8.40;3.63;;;;;;;;;;4977058;28;20132;-70
2023/09/15 02:43:19;;;;;;;6.93;3.50;;;;;;;;;;4987117;28;20061;-71
2023/09/15 02:45:45;;;;;;;9.13;3.55;;;;;;;;;;4983703;28;20053;-74
2023/09/15 02:48:12;;;;;;;10.38;3.83;;;;;;;;;;4987413;28;20513;-72
2023/09/15 02:50:42;;;;;;;6.63;3.80;;;;;;;;;;4977988;28;20069;-73
2023/09/15 02:53:08;;;;;;;10.32;3.72;;;;;;;;;;4984320;28;20113;-72
2023/09/15 02:55:37;;;;;;;8.30;3.83;;;;;;;;;;4985435;28;20045;-72
2023/09/15 02:58:03;;;;;;;7.40;3.45;;;;;;;;;;4983729;28;20035;-71
2023/09/15 03:00:30;;;;;;;8.32;3.75;;;;;;;;;;4980742;28;20063;-72
2023/09/15 03:02:56;;;;;;;7.55;3.33;;;;;;;;;;4985190;28;20080;-71
2023/09/15 03:05:22;;;;;;;10.45;4.63;;;;;;;;;;4984913;28;20030;-75
2023/09/15 03:07:48;;;;;;;12.77;4.30;;;;;;;;;;4986433;28;20121;-73
2023/09/15 03:10:14;;;;;;;7.38;3.67;;;;;;;;;;4986654;28;20031;-72
2023/09/15 03:12:40;;;;;;;7.20;3.90;;;;;;;;;;4974734;28;20031;-72
2023/09/15 03:15:07;;;;;;;10.25;4.72;;;;;;;;;;4973702;28;20034;-72
2023/09/15 03:17:34;;;;;;;9.05;3.80;;;;;;;;;;4978309;28;20073;-71
2023/09/15 03:20:00;;;;;;;8.68;3.63;;;;;;;;;;4984290;28;20038;-71
2023/09/15 03:22:27;;;;;;;8.63;3.70;;;;;;;;;;4991240;28;20045;-71
2023/09/15 03:24:55;;;;;;;7.40;4.07;;;;;;;;;;4982130;28;20035;-72
2023/09/15 03:27:21;;;;;;;7.88;4.07;;;;;;;;;;4975927;28;20444;-72
2023/09/15 03:29:47;;;;;;;8.65;4.05;;;;;;;;;;4998410;28;20037;-71
2023/09/15 03:32:13;;;;;;;9.13;3.60;;;;;;;;;;4980398;28;20042;-73
2023/09/15 03:34:39;;;;;;;9.75;3.88;;;;;;;;;;4982624;28;20066;-74
2023/09/15 03:37:05;;;;;;;8.88;4.50;;;;;;;;;;4973958;28;20109;-71
2023/09/15 03:39:31;;;;;;;10.88;3.80;;;;;;;;;;4982969;28;20082;-72
2023/09/15 03:41:57;;;;;;;7.00;3.42;;;;;;;;;;4984343;28;20075;-72
2023/09/15 03:44:23;;;;;;;5.35;3.60;;;;;;;;;;4980695;28;20058;-72
2023/09/15 03:46:49;;;;;;;8.38;3.92;;;;;;;;;;4988902;28;20038;-73
2023/09/15 03:49:15;;;;;;;6.28;3.72;;;;;;;;;;4983424;28;20034;-72
2023/09/15 03:51:41;;;;;;;8.75;3.70;;;;;;;;;;4980395;28;20054;-72
2023/09/15 03:54:08;;;;;;;8.07;3.67;;;;;;;;;;4979415;28;20034;-72
2023/09/15 03:56:34;;;;;;;30.70;14.73;;;;;;;;;;4976348;28;20444;-73
2023/09/15 03:59:00;;;;;;;17.85;8.25;;;;;;;;;;4985025;28;20223;-74
2023/09/15 04:01:26;;;;;;;8.48;4.50;;;;;;;;;;4983101;28;20387;-72
2023/09/15 04:03:52;;;;;;;10.07;4.43;;;;;;;;;;4984637;28;20042;-72
2023/09/15 04:06:18;;;;;;;12.15;4.55;;;;;;;;;;4979429;28;20384;-75
2023/09/15 04:08:46;;;;;;;7.65;3.67;;;;;;;;;;4983066;28;20031;-73
2023/09/15 04:11:12;;;;;;;10.48;4.00;;;;;;;;;;4978066;28;20476;-72
2023/09/15 04:13:38;;;;;;;15.10;3.92;;;;;;;;;;4972374;28;20047;-74
2023/09/15 04:16:04;;;;;;;7.72;3.70;;;;;;;;;;4988645;28;20515;-73
2023/09/15 04:18:32;;;;;;;7.47;3.25;;;;;;;;;;4991543;28;20034;-73
2023/09/15 04:20:58;;;;;;;8.98;4.20;;;;;;;;;;4982523;28;20034;-75
2023/09/15 04:23:24;;;;;;;7.43;3.53;;;;;;;;;;4976365;28;20062;-71
2023/09/15 04:25:50;;;;;;;9.05;4.38;;;;;;;;;;4998545;28;20061;-72
2023/09/15 04:28:16;;;;;;;9.57;3.53;;;;;;;;;;4985107;28;20045;-72
2023/09/15 04:30:42;;;;;;;8.52;4.03;;;;;;;;;;4976965;28;20043;-72
2023/09/15 04:33:08;;;;;;;8.40;3.63;;;;;;;;;;4985882;28;20054;-74
2023/09/15 04:35:34;;;;;;;11.30;5.05;;;;;;;;;;4984428;28;20045;-73
2023/09/15 04:38:00;;;;;;;7.43;3.60;;;;;;;;;;4990125;28;20114;-71
2023/09/15 04:40:26;;;;;;;9.55;3.83;;;;;;;;;;4979871;28;20110;-71
2023/09/15 04:42:52;;;;;;;6.38;3.55;;;;;;;;;;4982785;28;20031;-72
2023/09/15 04:45:18;;;;;;;9.63;3.63;;;;;;;;;;4994637;28;20117;-75
2023/09/15 04:47:45;;;;;;;11.80;3.83;;;;;;;;;;4984403;28;20100;-73
2023/09/15 04:50:11;;;;;;;10.65;4.00;;;;;;;;;;4974576;28;20114;-72
2023/09/15 04:52:37;;;;;;;9.85;4.00;;;;;;;;;;4985574;28;20034;-72
2023/09/15 04:55:03;;;;;;;5.93;3.75;;;;;;;;;;4982018;28;20034;-74
2023/09/15 04:57:29;;;;;;;10.88;4.00;;;;;;;;;;4987884;28;20042;-74
2023/09/15 04:59:55;;;;;;;5.95;3.28;;;;;;;;;;4993250;28;20073;-72
2023/09/15 05:02:23;;;;;;;9.10;3.78;;;;;;;;;;4983850;28;20054;-73
2023/09/15 05:04:50;;;;;;;9.68;3.78;;;;;;;;;;4993615;28;20476;-75
2023/09/15 05:07:16;;;;;;;7.90;4.00;;;;;;;;;;4983808;28;20073;-75
2023/09/15 05:09:42;;;;;;;5.53;3.83;;;;;;;;;;4985678;28;20034;-73
2023/09/15 05:12:08;;;;;;;9.63;4.05;;;;;;;;;;4984863;28;20459;-72
2023/09/15 05:14:34;;;;;;;8.68;3.63;;;;;;;;;;4983951;28;20037;-75
2023/09/15 05:17:00;;;;;;;11.68;4.70;;;;;;;;;;4980212;28;20279;-75
2023/09/15 05:19:27;;;;;;;7.32;4.30;;;;;;;;;;4987689;28;20061;-73
2023/09/15 05:21:53;;;;;;;7.25;3.65;;;;;;;;;;4990549;28;20038;-72
2023/09/15 05:24:19;;;;;;;7.57;3.78;;;;;;;;;;4982252;28;20092;-72
2023/09/15 05:26:45;;;;;;;8.80;3.70;;;;;;;;;;4983810;28;20042;-72
2023/09/15 05:29:11;;;;;;;9.50;4.25;;;;;;;;;;4983807;28;20034;-73
2023/09/15 05:31:37;;;;;;;9.10;3.80;;;;;;;;;;4988017;28;20046;-72
2023/09/15 05:34:03;;;;;;;17.02;4.78;;;;;;;;;;4990980;28;20058;-75
2023/09/15 05:36:29;;;;;;;7.70;3.65;;;;;;;;;;4991112;28;20026;-73
2023/09/15 05:38:55;;;;;;;10.05;3.53;;;;;;;;;;4981222;28;20125;-73
2023/09/15 05:41:21;;;;;;;12.38;3.92;;;;;;;;;;4986810;28;20491;-73
2023/09/15 05:43:47;;;;;;;9.15;3.83;;;;;;;;;;4977609;28;20034;-72
2023/09/15 05:46:13;;;;;;;8.00;3.85;;;;;;;;;;4990719;28;20030;-73
2023/09/15 05:48:39;;;;;;;8.90;3.60;;;;;;;;;;4982738;28;20042;-72
2023/09/15 05:51:07;;;;;;;5.70;3.50;;;;;;;;;;4989726;28;20504;-76
2023/09/15 05:53:33;;;;;;;13.85;3.70;;;;;;;;;;4983960;28;20517;-73
2023/09/15 05:55:59;;;;;;;7.60;3.85;;;;;;;;;;4989072;28;20149;-72
2023/09/15 05:58:25;;;;;;;8.48;4.25;;;;;;;;;;4988430;28;20120;-73
2023/09/15 06:00:55;;;;;;;4.40;3.63;;;;;;;;;;4978625;28;20117;-73
2023/09/15 06:03:21;;;;;;;8.40;3.33;;;;;;;;;;4978861;28;20037;-74
2023/09/15 06:05:47;;;;;;;7.75;3.78;;;;;;;;;;4984437;28;20030;-73
2023/09/15 06:08:13;;;;;;;9.35;3.60;;;;;;;;;;4985739;28;20563;-74
2023/09/15 06:10:40;;;;;;;8.18;3.50;;;;;;;;;;4983317;28;20043;-73
2023/09/15 06:13:06;;;;;;;8.57;3.63;;;;;;;;;;4987063;28;20030;-74
2023/09/15 06:15:33;;;;;;;9.63;3.85;;;;;;;;;;4982298;28;20031;-72
2023/09/15 06:18:00;;;;;;;8.45;4.15;;;;;;;;;;4987432;28;20042;-73
2023/09/15 06:20:26;;;;;;;11.02;3.97;;;;;;;;;;4984206;28;20496;-73
2023/09/15 06:22:52;;;;;;;10.95;3.38;;;;;;;;;;4990036;28;20504;-72
2023/09/15 06:25:18;;;;;;;7.45;3.20;;;;;;;;;;4987499;28;20055;-73
2023/09/15 06:27:44;;;;;;;8.75;3.50;;;;;;;;;;4985573;28;20031;-74
2023/09/15 06:30:10;;;;;;;9.13;3.78;;;;;;;;;;4982490;28;20043;-73
2023/09/15 06:32:36;;;;;;;6.60;3.67;;;;;;;;;;4983608;28;20035;-73
2023/09/15 06:35:03;;;;;;;10.93;3.30;;;;;;;;;;4984954;28;20539;-74
2023/09/15 06:37:29;;;;;;;7.50;4.07;;;;;;;;;;4985320;28;20042;-72
2023/09/15 06:39:55;;;;;;;6.82;3.28;;;;;;;;;;4983365;28;20038;-72
2023/09/15 06:42:20;;;;;;;8.70;3.60;;;;;;;;;;4983799;28;20547;-73
2023/09/15 06:44:46;;;;;;;11.75;4.95;;;;;;;;;;4982959;28;20117;-77
2023/09/15 06:47:13;;;;;;;7.88;4.63;;;;;;;;;;4987100;28;20456;-77
2023/09/15 06:49:39;;;;;;;10.07;3.80;;;;;;;;;;4987827;28;20034;-77
2023/09/15 06:52:05;;;;;;;9.70;3.97;;;;;;;;;;4985176;28;20042;-73
2023/09/15 06:54:31;;;;;;;8.25;3.78;;;;;;;;;;4975988;28;20826;-72
2023/09/15 06:56:57;;;;;;;12.52;3.42;;;;;;;;;;4980994;28;20043;-71
2023/09/15 06:59:23;;;;;;;6.57;3.17;;;;;;;;;;4987786;28;20045;-73
2023/09/15 07:01:49;;;;;;;7.22;3.03;;;;;;;;;;4990408;28;20108;-77
2023/09/15 07:04:15;;;;;;;28.73;16.40;;;;;;;;;;4992658;28;20124;-74
2023/09/15 07:06:41;;;;;;;12.48;5.13;;;;;;;;;;4980800;28;20086;-73
2023/09/15 07:09:07;;;;;;;9.40;4.82;;;;;;;;;;4980953;28;20054;-75
2023/09/15 07:11:33;;;;;;;10.23;4.45;;;;;;;;;;4997376;28;20042;-76
2023/09/15 07:13:59;;;;;;;9.10;3.83;;;;;;;;;;4978589;28;20044;-74
2023/09/15 07:16:26;;;;;;;10.52;3.42;;;;;;;;;;4981465;28;20081;-74
2023/09/15 07:18:52;;;;;;;9.80;3.67;;;;;;;;;;4984369;28;20065;-75
2023/09/15 07:21:18;;;;;;;9.55;3.92;;;;;;;;;;4984234;28;20521;-76
2023/09/15 07:23:44;;;;;;;8.73;3.47;;;;;;;;;;4983387;28;20105;-76
2023/09/15 07:26:10;;;;;;;10.68;3.55;;;;;;;;;;4988483;28;20028;-72
2023/09/15 07:28:36;;;;;;;8.50;2.67;;;;;;;;;;4981377;28;20038;-75
2023/09/15 07:31:03;;;;;;;58.70;33.05;;;;;;;;;;4984267;28;20039;-75
2023/09/15 07:33:29;;;;;;;16.83;8.20;;;;;;;;;;4985993;28;20077;-75
2023/09/15 07:36:02;;;;;;;17.10;5.32;;;;;;;;;;4992561;28;20035;-73
2023/09/15 07:38:29;;;;;;;11.23;4.32;;;;;;;;;;4982053;28;20038;-76
2023/09/15 07:40:55;;;;;;;17.60;3.25;;;;;;;;;;4983265;28;20913;-72
2023/09/15 07:43:21;;;;;;;10.23;3.22;;;;;;;;;;4980585;28;20453;-74
2023/09/15 07:45:48;;;;;;;7.80;2.97;;;;;;;;;;4980825;28;20405;-73
2023/09/15 07:48:15;;;;;;;7.28;3.00;;;;;;;;;;4987115;28;20031;-74
2023/09/15 07:50:41;;;;;;;10.23;3.47;;;;;;;;;;4983273;28;20096;-72
2023/09/15 07:53:07;;;;;;;8.10;3.60;;;;;;;;;;4991407;28;20173;-76
2023/09/15 07:55:33;;;;;;;6.35;2.47;;;;;;;;;;4983493;28;20110;-74
2023/09/15 07:57:59;;;;;;;8.02;2.88;;;;;;;;;;4979549;28;20722;-73
2023/09/15 08:00:25;;;;;;;8.10;2.63;;;;;;;;;;4980905;28;20037;-72
2023/09/15 08:02:51;;;;;;;9.93;2.70;;;;;;;;;;4988099;28;20027;-76
2023/09/15 08:05:17;;;;;;;7.53;3.15;;;;;;;;;;4983414;28;20397;-73
2023/09/15 08:07:47;;;;;;;72.95;49.17;;;;;;;;;;4985542;28;20045;-77
2023/09/15 08:10:14;;;;;;;22.50;11.90;;;;;;;;;;4984584;28;20278;-79
2023/09/15 08:12:40;;;;;;;13.43;3.85;;;;;;;;;;4977078;28;20141;-74
2023/09/15 08:15:06;;;;;;;6.68;2.55;;;;;;;;;;4985533;28;20050;-74
2023/09/15 08:17:32;;;;;;;8.45;2.70;;;;;;;;;;4983913;28;20392;-73
2023/09/15 08:19:59;;;;;;;5.63;2.50;;;;;;;;;;4985201;28;20039;-73
2023/09/15 08:22:26;;;;;;;8.15;3.75;;;;;;;;;;4981259;28;20484;-73
2023/09/15 08:24:55;;;;;;;7.35;2.50;;;;;;;;;;4977554;28;20058;-73
2023/09/15 08:27:21;;;;;;;12.30;3.47;;;;;;;;;;4985555;28;20404;-74
2023/09/15 08:29:47;;;;;;;8.52;2.85;;;;;;;;;;4986304;28;20076;-74
2023/09/15 08:32:14;;;;;;;10.02;3.70;;;;;;;;;;4985610;28;20066;-74
2023/09/15 08:34:41;;;;;;;9.25;3.38;;;;;;;;;;4990756;28;20050;-73
2023/09/15 08:37:07;;;;;;;7.78;3.17;;;;;;;;;;4981054;28;20034;-75
2023/09/15 08:39:33;;;;;;;5.65;2.88;;;;;;;;;;4985104;28;20038;-75
2023/09/15 08:42:03;;;;;;;7.43;2.42;;;;;;;;;;4982573;28;20501;-73
2023/09/15 08:44:32;;;;;;;11.63;3.15;;;;;;;;;;4988360;28;20153;-74
2023/09/15 08:47:00;;;;;;;8.45;2.95;;;;;;;;;;4988187;28;20085;-74
2023/09/15 08:49:27;;;;;;;6.15;2.58;;;;;;;;;;4988952;28;20062;-73
2023/09/15 08:51:54;;;;;;;5.68;2.60;;;;;;;;;;4989364;28;20093;-74
2023/09/15 08:54:20;;;;;;;7.47;2.92;;;;;;;;;;4990105;28;20026;-73
2023/09/15 08:56:47;;;;;;;6.28;2.30;;;;;;;;;;4984856;28;20280;-76
2023/09/15 08:59:14;;;;;;;6.57;2.97;;;;;;;;;;4987995;28;20508;-75
2023/09/15 09:01:40;;;;;;;7.25;3.45;;;;;;;;;;4979308;28;20414;-74
2023/09/15 09:04:07;;;;;;;9.75;3.10;;;;;;;;;;4981477;28;20077;-75
2023/09/15 09:06:37;;;;;;;11.27;3.10;;;;;;;;;;4983621;28;20093;-74
2023/09/15 09:09:04;;;;;;;8.23;2.83;;;;;;;;;;4985383;28;20113;-74
2023/09/15 09:11:30;;;;;;;9.38;2.90;;;;;;;;;;4990877;28;20029;-74
2023/09/15 09:13:56;;;;;;;5.97;3.15;;;;;;;;;;4984209;28;20097;-75
2023/09/15 09:16:23;;;;;;;11.68;3.17;;;;;;;;;;4990911;28;20448;-75
2023/09/15 09:18:56;;;;;;;7.40;2.50;;;;;;;;;;4984646;28;20108;-75
2023/09/15 09:21:24;;;;;;;7.43;3.33;;;;;;;;;;4984675;28;20499;-75
2023/09/15 09:23:50;;;;;;;7.50;2.90;;;;;;;;;;4988527;28;20488;-77
2023/09/15 09:26:16;;;;;;;8.80;3.53;;;;;;;;;;5000861;28;20050;-78
2023/09/15 09:28:42;;;;;;;10.13;3.28;;;;;;;;;;4983803;28;20035;-76
2023/09/15 09:31:09;;;;;;;9.25;3.10;;;;;;;;;;4989819;28;20030;-74
2023/09/15 09:33:37;;;;;;;7.18;3.17;;;26.00;99.90;;;;;;4987555;28;20456;-76
2023/09/15 09:36:10;;;;;;;6.20;3.38;;;;;;;;;;4987844;28;20085;-78
2023/09/15 09:38:42;;;;;;;8.50;3.65;;;;;;;;;;4990604;28;20384;-74
2023/09/15 09:41:11;;;;;;;13.70;6.60;;;26.70;99.90;;;;;;4982400;28;20468;-79
2023/09/15 09:43:41;;;;;;;10.63;4.82;;;;;;;;;;4989916;28;20022;-77
2023/09/15 09:46:08;;;;;;;7.95;3.88;;;;;;;;;;4982791;28;20517;-80
2023/09/15 09:48:34;;;;;;;6.13;3.28;;;;;;;;;;4988345;28;20125;-79
2023/09/15 09:51:03;;;;;;;6.93;3.80;;;27.80;99.90;;;;;;4987607;28;20061;-77
2023/09/15 09:53:32;;;;;;;7.97;3.72;;;28.00;99.90;;;;;;4985394;28;21220;-83
2023/09/15 09:55:58;;;;;;;10.50;3.75;;;;;;;;;;4983458;28;20468;-79
2023/09/15 09:58:24;;;;;;;8.98;3.10;;;28.30;99.90;;;;;;4980728;28;20034;-78
2023/09/15 10:00:50;;;;;;;9.52;3.20;;;;;;;;;;4986260;28;20037;-78
2023/09/15 10:03:19;;;;;;;7.20;3.47;;;;;;;;;;4983060;28;20041;-79
2023/09/15 10:05:47;;;;;;;6.25;3.05;;;;;;;;;;4986727;28;20026;-80
2023/09/15 10:08:14;;;;;;;7.53;3.15;;;;;;;;;;4980513;28;20030;-79
2023/09/15 10:10:43;;;;;;;6.38;3.45;;;;;;;;;;4985663;28;20052;-80
2023/09/15 10:13:10;;;;;;;5.97;2.72;;;;;;;;;;4978165;28;20420;-76
2023/09/15 10:15:36;;;;;;;5.40;3.08;;;;;;;;;;4976160;28;20104;-76
2023/09/15 10:18:04;;;;;;;7.57;3.25;;;29.00;99.90;;;;;;4984496;28;20054;-74
2023/09/15 10:20:31;;;;;;;5.45;2.55;;;;;;;;;;4984988;28;20109;-80
2023/09/15 10:22:57;;;;;;;4.65;2.42;;;;;;;;;;4978608;28;20057;-76
2023/09/15 10:25:24;;;;;;;6.68;2.35;;;;;;;;;;4982272;28;20109;-75
2023/09/15 10:27:50;;;;;;;5.65;2.47;;;;;;;;;;4980361;28;20041;-77
2023/09/15 10:30:16;;;;;;;4.93;2.10;;;;;;;;;;4983282;28;20037;-77
2023/09/15 10:32:43;;;;;;;11.32;2.00;;;;;;;;;;4980862;28;20034;-78
2023/09/15 10:35:10;;;;;;;5.32;2.13;;;;;;;;;;4986213;28;20272;-78
2023/09/15 10:37:43;;;;;;;11.75;2.05;;;30.10;99.90;;;;;;4985396;28;20045;-74
2023/09/15 10:40:10;;;;;;;8.68;2.10;;;;;;;;;;4995389;28;20043;-75
2023/09/15 10:42:55;;;;;;;7.35;1.70;;;;;;;;;;4981951;28;20241;-80
2023/09/15 10:45:21;;;;;;;8.00;2.58;;;;;;;;;;4976070;28;20034;-76
2023/09/15 10:47:58;;;;;;;7.35;1.73;;;;;;;;;;4981709;28;20033;-79
2023/09/15 10:50:39;;;;;;;4.38;2.03;;;;;;;;;;4987793;28;20035;-77
2023/09/15 10:53:12;;;;;;;7.28;3.58;;;30.50;99.90;;;;;;4987343;28;20037;-78
2023/09/15 10:55:40;;;;;;;4.50;1.55;;;;;;;;;;4986776;28;20035;-81
2023/09/15 10:58:06;;;;;;;4.57;2.00;;;;;;;;;;4980882;28;20053;-75
2023/09/15 11:00:33;;;;;;;6.93;1.73;;;;;;;;;;4987398;28;20038;-79
2023/09/15 11:02:59;;;;;;;3.35;1.70;;;;;;;;;;4980538;28;20492;-74
2023/09/15 11:05:27;;;;;;;4.82;2.00;;;;;;;;;;4986133;28;20045;-75
2023/09/15 11:07:56;;;;;;;1.85;1.23;;;30.00;99.90;;;;;;4981232;28;20043;-75
2023/09/15 11:10:27;;;;;;;6.65;1.60;;;29.50;99.90;;;;;;4986700;28;20042;-75
2023/09/15 11:13:02;;;;;;;3.90;1.70;;;;;;;;;;4983639;28;20042;-74
2023/09/15 11:15:28;;;;;;;7.63;1.90;;;28.80;99.90;;;;;;4975852;28;20037;-76
2023/09/15 11:17:54;;;;;;;8.43;1.60;;;;;;;;;;4998100;28;20038;-74
2023/09/15 11:20:21;;;;;;;4.95;2.03;;;;;;;;;;4987064;28;20037;-72
2023/09/15 11:22:47;;;;;;;10.52;2.05;;;;;;;;;;4983337;28;20109;-74
2023/09/15 11:25:15;;;;;;;5.68;2.58;;;26.30;99.90;;;;;;4985958;28;20038;-75
2023/09/15 11:27:41;;;;;;;4.13;2.33;;;;;;;;;;4981241;28;20108;-75
2023/09/15 11:30:07;;;;;;;6.38;2.28;;;;;;;;;;4985494;28;20161;-77
2023/09/15 11:32:34;;;;;;;2.75;1.33;;;;;;;;;;4981186;28;20030;-76
2023/09/15 11:35:05;;;;;;;2.05;1.33;;;25.40;99.90;;;;;;4980394;28;20124;-75
2023/09/15 11:37:31;;;;;;;3.65;1.60;;;;;;;;;;4983434;28;20058;-75
2023/09/15 11:39:57;;;;;;;8.02;2.20;;;;;;;;;;4981016;28;20035;-75
2023/09/15 11:42:24;;;;;;;5.45;2.15;;;;;;;;;;4984059;28;20040;-83
2023/09/15 11:44:50;;;;;;;6.40;2.13;;;;;;;;;;4983524;28;20046;-80
2023/09/15 11:47:17;;;;;;;7.47;2.85;;;;;;;;;;4982259;28;20041;-77
2023/09/15 11:49:43;;;;;;;7.55;2.13;;;;;;;;;;4979243;28;20077;-78
2023/09/15 11:52:10;;;;;;;6.28;2.80;;;;;;;;;;4980160;28;20034;-77
2023/09/15 11:54:36;;;;;;;6.13;2.10;;;;;;;;;;4983761;28;20030;-77
2023/09/15 11:57:02;;;;;;;5.05;1.70;;;;;;;;;;4979990;28;20113;-78
2023/09/15 11:59:28;;;;;;;3.78;1.75;;;;;;;;;;4993868;28;20097;-78
2023/09/15 12:01:58;;;;;;;3.22;1.52;;;;;;;;;;4985291;28;20034;-78
2023/09/15 12:04:27;;;;;;;5.53;2.28;;;;;;;;;;4987106;28;20047;-78
2023/09/15 12:06:54;;;;;;;6.43;1.92;;;;;;;;;;4984663;28;20022;-78
2023/09/15 12:09:20;;;;;;;4.90;2.15;;;;;;;;;;4979531;28;20477;-78
2023/09/15 12:11:46;;;;;;;4.68;1.63;;;;;;;;;;4981157;28;20358;-78
2023/09/15 12:14:13;;;;;;;7.45;1.75;;;;;;;;;;4980149;28;20911;-78
2023/09/15 12:16:39;;;;;;;6.15;1.60;;;;;;;;;;4974444;28;20521;-78
2023/09/15 12:19:05;;;;;;;4.38;2.22;;;;;;;;;;4980335;28;20038;-78
2023/09/15 12:21:31;;;;;;;6.03;1.98;;;;;;;;;;4982789;28;20054;-78
2023/09/15 12:24:10;;;;;;;4.57;1.70;;;24.90;99.90;;;;;;4975493;28;20421;-77
2023/09/15 12:26:38;;;;;;;8.20;2.00;;;;;;;;;;4983990;28;20145;-76
2023/09/15 12:29:04;;;;;;;4.85;1.90;;;;;;;;;;4987072;28;20038;-77
2023/09/15 12:31:40;;;;;;;5.78;1.90;;;24.90;99.90;;;;;;4980633;28;20031;-77
2023/09/15 12:34:06;;;;;;;3.42;1.80;;;;;;;;;;4979909;28;20503;-77
2023/09/15 12:36:32;;;;;;;5.03;1.88;;;;;;;;;;4987078;28;20050;-76
2023/09/15 12:38:58;;;;;;;4.72;2.35;;;;;;;;;;4982734;28;20112;-77
2023/09/15 12:41:24;;;;;;;6.45;2.10;;;;;;;;;;4989029;28;20524;-78
2023/09/15 12:43:50;;;;;;;4.45;1.77;;;;;;;;;;4982264;28;20530;-77
2023/09/15 12:46:16;;;;;;;4.63;2.72;;;;;;;;;;4979758;28;20035;-77
2023/09/15 12:48:43;;;;;;;7.65;1.90;;;;;;;;;;4981738;28;20117;-77
2023/09/15 12:51:11;;;;;;;6.43;2.10;;;;;;;;;;4986691;28;20628;-77
2023/09/15 12:53:37;;;;;;;8.70;2.78;;;;;;;;;;4984766;28;20034;-77
2023/09/15 12:56:03;;;;;;;6.43;1.70;;;;;;;;;;4983558;28;20045;-77
2023/09/15 12:58:29;;;;;;;5.88;1.83;;;;;;;;;;4981623;28;20149;-78
2023/09/15 13:00:56;;;;;;;4.57;2.10;;;;;;;;;;4985351;28;20041;-78
2023/09/15 13:03:22;;;;;;;5.68;1.90;;;;;;;;;;4985177;28;20563;-78
2023/09/15 13:05:49;;;;;;;2.97;1.80;;;;;;;;;;4979138;28;20041;-77
2023/09/15 13:08:15;;;;;;;4.05;1.80;;;;;;;;;;4982743;28;20034;-77
2023/09/15 13:10:41;;;;;;;3.00;1.80;;;;;;;;;;4983308;28;20480;-77
2023/09/15 13:13:08;;;;;;;6.28;2.05;;;;;;;;;;4992192;28;20029;-76
2023/09/15 13:15:34;;;;;;;4.25;1.80;;;;;;;;;;4988148;28;20026;-76
2023/09/15 13:18:00;;;;;;;4.30;1.60;;;;;;;;;;4986735;28;20455;-74
2023/09/15 13:20:27;;;;;;;5.15;1.60;;;;;;;;;;4975771;28;20038;-76
2023/09/15 13:22:53;;;;;;;4.35;1.70;;;;;;;;;;4988963;28;20383;-75
2023/09/15 13:25:19;;;;;;;4.57;1.77;;;;;;;;;;4982898;28;20042;-75
2023/09/15 13:27:45;;;;;;;4.75;1.70;;;;;;;;;;4977890;28;20064;-76
2023/09/15 13:30:13;;;;;;;4.47;2.13;;;;;;;;;;4990813;28;20035;-76
2023/09/15 13:32:39;;;;;;;3.50;1.65;;;;;;;;;;4988138;28;20061;-78
2023/09/15 13:35:05;;;;;;;5.85;2.97;;;;;;;;;;4987013;28;20057;-78
2023/09/15 13:37:31;;;;;;;4.20;2.55;;;;;;;;;;4987638;28;20542;-74
2023/09/15 13:39:58;;;;;;;4.75;2.53;;;;;;;;;;4980606;28;20043;-74
2023/09/15 13:42:34;;;;;;;4.88;1.70;;;;;;;;;;4992074;28;20037;-75
2023/09/15 13:45:00;;;;;;;5.75;1.85;;;;;;;;;;4987973;28;20030;-75
2023/09/15 13:47:35;;;;;;;8.10;2.05;;;25.20;99.90;;;;;;4983005;28;20066;-75
2023/09/15 13:50:02;;;;;;;8.68;1.90;;;;;;;;;;4982869;28;20042;-76
2023/09/15 13:52:28;;;;;;;2.65;1.60;;;;;;;;;;4986376;28;20826;-76
2023/09/15 13:54:55;;;;;;;3.95;2.15;;;;;;;;;;4983848;28;20041;-77
2023/09/15 13:57:21;;;;;;;5.20;1.90;;;;;;;;;;4986332;28;20537;-84
2023/09/15 13:59:47;;;;;;;4.50;2.17;;;;;;;;;;4987481;28;20042;-87
2023/09/15 14:02:14;;;;;;;13.70;7.40;;;;;;;;;;4986477;28;20596;-90
2023/09/15 14:04:40;;;;;;;8.65;3.75;;;;;;;;;;4983093;28;20053;-82
2023/09/15 14:07:06;;;;;;;4.47;1.80;;;;;;;;;;4979940;28;20550;-83
2023/09/15 14:09:35;;;;;;;4.63;1.95;;;;;;;;;;4987277;28;20197;-82
2023/09/15 14:12:01;;;;;;;6.07;2.03;;;;;;;;;;4982811;28;20487;-82
2023/09/15 14:14:27;;;;;;;5.07;1.80;;;;;;;;;;4982329;28;20113;-76
2023/09/15 14:16:54;;;;;;;5.70;1.60;;;;;;;;;;5003705;28;20443;-76
2023/09/15 14:19:20;;;;;;;7.55;1.90;;;;;;;;;;4988117;28;20165;-76
2023/09/15 14:21:47;;;;;;;3.63;1.75;;;;;;;;;;4992446;28;20581;-76
2023/09/15 14:24:14;;;;;;;5.93;1.92;;;;;;;;;;4989548;28;20038;-76
2023/09/15 14:26:40;;;;;;;4.20;1.55;;;;;;;;;;4987509;28;20027;-76
2023/09/15 14:29:06;;;;;;;5.22;1.55;;;;;;;;;;4986634;28;20396;-76
2023/09/15 14:31:32;;;;;;;5.00;1.67;;;;;;;;;;4989920;28;20297;-76